KCVW

National Data Buoy Center

Cameron, Louisiana, USA
METAR KCVW 162155Z AUTO 00000KT 10SM CLR 15/11 A3025 RMK A01
Observed Flight Rules
Dec-16 @ 21:55 UTC (8 minutes ago) Visual Flight Rules
Visibility Clouds
10 miles
  • Clear skies
Temperatures Readings
Current 15°C / 59°F
Dewpoint 11°C / 52°F
Humidity 77%
Altimeter 30.25" Hg
Pressure 1024 hPa
Elevation 1
METAR KCVW 162155Z AUTO 00000KT 10SM CLR 15/11 A3025 RMK A01
Observed Flight Rules
Dec-16 @ 21:55 UTC
(8 minutes ago)
VFR
Clouds
  • Clear skies
Temperature Dewpoint
15°C / 59°F 11°C / 52°F
Humidity Altimeter Pressure
77% 30.25" Hg 1024 hPa